Time;durP1;ratioP1;P1;durP2;ratioP2;P2;SDS_P1;SDS_P2;PMS_P1;PMS_P2;Temp;Humidity;BMP_temperature;BMP_pressure;BME280_temperature;BME280_humidity;BME280_pressure;Samples;Min_cycle;Max_cycle;Signal;HPM_P1;HPM_P2
2022/12/24 00:02:10;;;;;;;;;;;9.90;99.90;;;;;;4937499;29;20400;-82
2022/12/24 00:04:37;;;;;;;;;;;9.90;99.90;;;;;;4937992;29;19931;-82
2022/12/24 00:07:04;;;;;;;;;;;9.90;99.90;;;;;;4935364;29;19927;-83
2022/12/24 00:09:35;;;;;;;;;;;9.90;99.90;;;;;;4936920;29;19931;-83
2022/12/24 00:12:04;;;;;;;;;;;9.90;99.90;;;;;;4940906;29;20002;-82
2022/12/24 00:14:31;;;;;;;;;;;9.90;99.90;;;;;;4930755;29;19966;-84
2022/12/24 00:16:57;;;;;;;;;;;9.90;99.90;;;;;;4922684;29;19942;-87
2022/12/24 00:19:24;;;;;;;;;;;9.90;99.90;;;;;;4933821;29;19926;-82
2022/12/24 00:21:52;;;;;;;;;;;9.90;99.90;;;;;;4930062;29;19934;-82
2022/12/24 00:24:19;;;;;;;;;;;9.90;99.90;;;;;;4936531;29;19927;-86
2022/12/24 00:26:45;;;;;;;;;;;9.90;99.90;;;;;;4931338;29;20091;-84
2022/12/24 00:29:14;;;;;;;;;;;9.90;99.90;;;;;;4935263;29;19927;-83
2022/12/24 00:31:42;;;;;;;;;;;9.90;99.90;;;;;;4936364;29;19941;-85
2022/12/24 00:34:12;;;;;;;;;;;9.80;99.90;;;;;;4935853;29;19927;-83
2022/12/24 00:36:39;;;;;;;;;;;9.80;99.90;;;;;;4937836;29;19931;-84
2022/12/24 00:39:06;;;;;;;;;;;9.80;99.90;;;;;;4919513;29;19959;-87
2022/12/24 00:41:33;;;;;;;;;;;9.80;99.90;;;;;;4936524;29;19931;-83
2022/12/24 00:44:04;;;;;;;;;;;9.80;99.90;;;;;;4936562;29;19951;-82
2022/12/24 00:46:33;;;;;;;;;;;9.80;99.90;;;;;;4937436;29;19995;-84
2022/12/24 00:49:01;;;;;;;;;;;9.80;99.90;;;;;;4934262;29;19933;-83
2022/12/24 00:51:28;;;;;;;;;;;9.80;99.90;;;;;;4928862;29;19931;-82
2022/12/24 00:53:59;;;;;;;;;;;9.80;99.90;;;;;;4925025;29;20586;-83
2022/12/24 00:56:27;;;;;;;;;;;9.80;99.90;;;;;;4924396;29;19974;-83
2022/12/24 00:58:54;;;;;;;;;;;9.80;99.90;;;;;;4930461;29;19935;-81
2022/12/24 01:01:22;;;;;;;;;;;9.80;99.90;;;;;;4925348;29;20144;-81
2022/12/24 01:03:51;;;;;;;;;;;9.70;99.90;;;;;;4911911;29;19941;-83
2022/12/24 01:06:20;;;;;;;;;;;9.70;99.90;;;;;;4929678;29;20013;-84
2022/12/24 01:08:50;;;;;;;;;;;9.70;99.90;;;;;;4935146;29;19941;-79
2022/12/24 01:11:18;;;;;;;;;;;9.70;99.90;;;;;;4935040;29;19961;-80
2022/12/24 01:13:45;;;;;;;;;;;9.70;99.90;;;;;;4931899;29;19973;-81
2022/12/24 01:16:19;;;;;;;;;;;9.70;99.90;;;;;;4937312;29;19982;-79
2022/12/24 01:18:46;;;;;;;;;;;9.70;99.90;;;;;;4941255;29;19931;-83
2022/12/24 01:21:14;;;;;;;;;;;9.70;99.90;;;;;;4936240;29;19933;-83
2022/12/24 01:23:41;;;;;;;;;;;9.70;99.90;;;;;;4932982;29;19931;-83
2022/12/24 01:26:08;;;;;;;;;;;9.70;99.90;;;;;;4929481;29;19930;-83
2022/12/24 01:28:35;;;;;;;;;;;9.70;99.90;;;;;;4939795;29;19926;-80
2022/12/24 01:31:03;;;;;;;;;;;9.70;99.90;;;;;;4917247;29;19978;-83
2022/12/24 01:33:30;;;;;;;;;;;9.60;99.90;;;;;;4935767;29;20413;-83
2022/12/24 01:35:57;;;;;;;;;;;9.70;99.90;;;;;;4939686;29;20025;-83
2022/12/24 01:38:25;;;;;;;;;;;9.70;99.90;;;;;;4936534;29;19927;-83
2022/12/24 01:43:36;;;;;;;;;;;9.60;99.90;;;;;;4944209;28;19929;-83
2022/12/24 01:46:04;;;;;;;;;;;9.60;99.90;;;;;;4938839;29;19980;-83
2022/12/24 01:48:37;;;;;;;;;;;9.60;99.90;;;;;;4933560;29;19973;-83
2022/12/24 01:51:08;;;;;;;;;;;9.60;99.90;;;;;;4935588;29;19934;-81
2022/12/24 01:53:39;;;;;;;;;;;9.60;99.90;;;;;;4934062;29;19969;-81
2022/12/24 01:56:07;;;;;;;;;;;9.60;99.90;;;;;;4935660;29;20405;-81
2022/12/24 01:58:34;;;;;;;;;;;9.60;99.90;;;;;;4934866;29;19983;-80
2022/12/24 02:01:01;;;;;;;;;;;9.50;99.90;;;;;;4938429;29;19933;-80
2022/12/24 02:03:28;;;;;;;;;;;9.50;99.90;;;;;;4936834;29;19969;-81
2022/12/24 02:05:57;;;;;;;;;;;9.50;99.90;;;;;;4935317;29;19931;-81
2022/12/24 02:08:38;;;;;;;;;;;9.50;99.90;;;;;;4937856;29;20378;-81
2022/12/24 02:11:17;;;;;;;;;;;9.50;99.90;;;;;;4933231;29;19931;-81
2022/12/24 02:13:47;;;;;;;;;;;9.50;99.90;;;;;;4925469;29;20002;-81
2022/12/24 02:16:20;;;;;;;;;;;9.50;99.90;;;;;;4926802;28;19927;-80
2022/12/24 02:18:50;;;;;;;;;;;9.50;99.90;;;;;;4914178;29;19931;-81
2022/12/24 02:21:34;;;;;;;;;;;9.50;99.90;;;;;;4936898;29;19927;-81
2022/12/24 02:24:05;;;;;;;;;;;9.40;99.90;;;;;;4928403;29;19927;-80
2022/12/24 02:26:47;;;;;;;;;;;9.40;99.90;;;;;;4937861;29;19962;-81
2022/12/24 02:29:21;;;;;;;;;;;9.40;99.90;;;;;;4944230;29;19927;-81
2022/12/24 02:31:51;;;;;;;;;;;9.40;99.90;;;;;;4943690;29;19926;-82
2022/12/24 02:34:22;;;;;;;;;;;9.40;99.90;;;;;;4935857;29;19943;-80
2022/12/24 02:36:54;;;;;;;;;;;9.40;99.90;;;;;;4933032;29;19938;-81
2022/12/24 02:39:22;;;;;;;;;;;9.40;99.90;;;;;;4933655;29;19934;-81
2022/12/24 02:42:07;;;;;;;;;;;9.40;99.90;;;;;;4930870;29;19931;-82
2022/12/24 02:44:37;;;;;;;;;;;9.40;99.90;;;;;;4938937;29;19927;-82
2022/12/24 02:47:06;;;;;;;;;;;9.40;99.90;;;;;;4932990;29;19982;-82
2022/12/24 02:49:33;;;;;;;;;;;9.40;99.90;;;;;;4927783;29;19955;-82
2022/12/24 02:51:59;;;;;;;;;;;9.30;99.90;;;;;;4930904;29;19930;-81
2022/12/24 02:54:27;;;;;;;;;;;9.30;99.90;;;;;;4931745;29;20427;-81
2022/12/24 02:57:03;;;;;;;;;;;9.30;99.90;;;;;;4919387;29;19991;-82
2022/12/24 02:59:43;;;;;;;;;;;9.30;99.90;;;;;;4934328;29;19953;-82
2022/12/24 03:02:19;;;;;;;;;;;9.30;99.90;;;;;;4933726;29;19931;-81
2022/12/24 03:04:49;;;;;;;;;;;9.30;99.90;;;;;;4936480;29;19973;-82
2022/12/24 03:07:19;;;;;;;;;;;9.30;99.90;;;;;;4942107;29;20495;-81
2022/12/24 03:09:59;;;;;;;;;;;9.30;99.90;;;;;;4940357;29;19935;-82
2022/12/24 03:12:28;;;;;;;;;;;9.30;99.90;;;;;;4937624;29;19978;-81
2022/12/24 03:14:55;;;;;;;;;;;9.30;99.90;;;;;;4938711;29;20045;-81
2022/12/24 03:17:26;;;;;;;;;;;9.20;99.90;;;;;;4942485;29;19931;-82
2022/12/24 03:19:55;;;;;;;;;;;9.30;99.90;;;;;;4940728;29;19998;-82
2022/12/24 03:22:25;;;;;;;;;;;9.20;99.90;;;;;;4937561;29;19959;-81
2022/12/24 03:24:52;;;;;;;;;;;9.20;99.90;;;;;;4936787;29;19981;-81
2022/12/24 03:27:20;;;;;;;;;;;9.20;99.90;;;;;;4940740;29;20737;-82
2022/12/24 03:29:46;;;;;;;;;;;9.20;99.90;;;;;;4939139;29;19950;-82
2022/12/24 03:32:14;;;;;;;;;;;9.20;99.90;;;;;;4931857;29;19927;-82
2022/12/24 03:34:43;;;;;;;;;;;9.20;99.90;;;;;;4942213;29;19930;-82
2022/12/24 03:37:12;;;;;;;;;;;9.20;99.90;;;;;;4936080;29;20365;-81
2022/12/24 03:39:39;;;;;;;;;;;9.20;99.90;;;;;;4938222;29;19927;-82
2022/12/24 03:42:06;;;;;;;;;;;9.20;99.90;;;;;;4936781;29;19927;-82
2022/12/24 03:44:33;;;;;;;;;;;9.20;99.90;;;;;;4937726;29;19926;-82
2022/12/24 03:47:01;;;;;;;;;;;9.20;99.90;;;;;;4933038;29;19927;-81
2022/12/24 03:49:31;;;;;;;;;;;9.10;99.90;;;;;;4934746;29;19937;-81
2022/12/24 03:52:00;;;;;;;;;;;9.10;99.90;;;;;;4937821;29;20405;-81
2022/12/24 03:54:27;;;;;;;;;;;9.10;99.90;;;;;;4939375;28;19978;-82
2022/12/24 03:56:53;;;;;;;;;;;9.10;99.90;;;;;;4938674;29;20416;-82
2022/12/24 03:59:23;;;;;;;;;;;9.10;99.90;;;;;;4936147;29;19966;-82
2022/12/24 04:01:50;;;;;;;;;;;9.10;99.90;;;;;;4938742;29;19931;-81
2022/12/24 04:04:17;;;;;;;;;;;9.10;99.90;;;;;;4936928;29;19985;-81
2022/12/24 04:06:43;;;;;;;;;;;9.10;99.90;;;;;;4937024;29;19931;-81
2022/12/24 04:09:12;;;;;;;;;;;9.10;99.90;;;;;;4937254;29;20444;-81
2022/12/24 04:11:38;;;;;;;;;;;9.10;99.90;;;;;;4937677;29;19934;-82
2022/12/24 04:14:05;;;;;;;;;;;9.00;99.90;;;;;;4934783;29;19937;-80
2022/12/24 04:16:32;;;;;;;;;;;9.00;99.90;;;;;;4934202;29;19945;-82
2022/12/24 04:18:59;;;;;;;;;;;9.00;99.90;;;;;;4935734;29;19926;-81
2022/12/24 04:21:26;;;;;;;;;;;9.00;99.90;;;;;;4921956;29;19951;-82
2022/12/24 04:23:53;;;;;;;;;;;9.00;99.90;;;;;;4936996;29;19983;-82
2022/12/24 04:26:22;;;;;;;;;;;9.00;99.90;;;;;;4941271;29;19974;-81
2022/12/24 04:28:49;;;;;;;;;;;9.00;99.90;;;;;;4938393;29;19931;-82
2022/12/24 04:31:17;;;;;;;;;;;9.00;99.90;;;;;;4938105;29;19962;-82
2022/12/24 04:33:45;;;;;;;;;;;9.00;99.90;;;;;;4937287;29;19974;-82
2022/12/24 04:36:15;;;;;;;;;;;9.00;99.90;;;;;;4944411;29;19927;-82
2022/12/24 04:38:42;;;;;;;;;;;9.00;99.90;;;;;;4932296;29;19926;-82
2022/12/24 04:41:12;;;;;;;;;;;9.00;99.90;;;;;;4933419;29;19931;-81
2022/12/24 04:43:40;;;;;;;;;;;8.90;99.90;;;;;;4937927;29;19926;-81
2022/12/24 04:46:10;;;;;;;;;;;8.90;99.90;;;;;;4938909;29;19938;-81
2022/12/24 04:48:37;;;;;;;;;;;8.90;99.90;;;;;;4938951;29;19950;-81
2022/12/24 04:51:05;;;;;;;;;;;8.90;99.90;;;;;;4937406;29;19927;-82
2022/12/24 04:53:34;;;;;;;;;;;8.90;99.90;;;;;;4934236;29;20294;-82
2022/12/24 04:56:01;;;;;;;;;;;8.90;99.90;;;;;;4926928;29;19973;-82
2022/12/24 04:58:30;;;;;;;;;;;8.90;99.90;;;;;;4933489;29;19934;-81
2022/12/24 05:01:03;;;;;;;;;;;8.90;99.90;;;;;;4937136;29;20646;-82
2022/12/24 05:03:31;;;;;;;;;;;8.90;99.90;;;;;;4938200;29;20186;-81
2022/12/24 05:06:01;;;;;;;;;;;8.90;99.90;;;;;;4931249;29;20029;-80
2022/12/24 05:08:28;;;;;;;;;;;8.90;99.90;;;;;;4937369;29;19927;-82
2022/12/24 05:10:56;;;;;;;;;;;8.90;99.90;;;;;;4933843;29;19974;-81
2022/12/24 05:13:23;;;;;;;;;;;8.80;99.90;;;;;;4933116;29;19927;-82
2022/12/24 05:15:51;;;;;;;;;;;8.80;99.90;;;;;;4938930;29;19930;-81
2022/12/24 05:18:20;;;;;;;;;;;8.80;99.90;;;;;;4935061;29;19930;-81
2022/12/24 05:20:47;;;;;;;;;;;8.80;99.90;;;;;;4934629;29;20023;-81
2022/12/24 05:28:46;;;;;;;;;;;8.80;99.90;;;;;;4934342;29;19966;-82
2022/12/24 05:31:14;;;;;;;;;;;8.80;99.90;;;;;;4932230;29;20367;-81
2022/12/24 05:33:43;;;;;;;;;;;8.80;99.90;;;;;;4942229;29;20056;-82
2022/12/24 05:36:11;;;;;;;;;;;8.80;99.90;;;;;;4936713;29;20068;-81
2022/12/24 05:38:37;;;;;;;;;;;8.80;99.90;;;;;;4914842;29;19934;-82
2022/12/24 05:41:05;;;;;;;;;;;8.80;99.90;;;;;;4936967;29;19927;-81
2022/12/24 05:43:32;;;;;;;;;;;8.80;99.90;;;;;;4943710;29;19927;-80
2022/12/24 05:45:59;;;;;;;;;;;8.70;99.90;;;;;;4938368;29;19935;-80
2022/12/24 05:48:29;;;;;;;;;;;8.70;99.90;;;;;;4928372;29;22357;-81
2022/12/24 05:51:02;;;;;;;;;;;8.70;99.90;;;;;;4936847;29;19938;-81
2022/12/24 05:53:29;;;;;;;;;;;8.70;99.90;;;;;;4938132;29;19927;-81
2022/12/24 05:56:02;;;;;;;;;;;8.70;99.90;;;;;;4933260;29;19937;-80
2022/12/24 05:58:29;;;;;;;;;;;8.70;99.90;;;;;;4931199;29;19938;-82
2022/12/24 06:00:56;;;;;;;;;;;8.70;99.90;;;;;;4933277;29;19931;-81
2022/12/24 06:03:23;;;;;;;;;;;8.70;99.90;;;;;;4913963;29;20183;-81
2022/12/24 06:05:58;;;;;;;;;;;8.70;99.90;;;;;;4936431;29;19942;-81
2022/12/24 06:08:25;;;;;;;;;;;8.70;99.90;;;;;;4937254;29;19978;-83
2022/12/24 06:10:54;;;;;;;;;;;8.70;99.90;;;;;;4934093;29;20377;-83
2022/12/24 06:13:21;;;;;;;;;;;8.70;99.90;;;;;;4937956;29;19931;-83
2022/12/24 06:15:48;;;;;;;;;;;8.60;99.90;;;;;;4953323;29;19914;-83
2022/12/24 06:18:15;;;;;;;;;;;8.70;99.90;;;;;;4948679;29;20309;-81
2022/12/24 06:20:42;;;;;;;;;;;8.60;99.90;;;;;;4933187;29;20014;-83
2022/12/24 06:23:11;;;;;;;;;;;8.60;99.90;;;;;;4938171;29;19978;-83
2022/12/24 06:25:38;;;;;;;;;;;8.60;99.90;;;;;;4935548;29;19931;-83
2022/12/24 06:28:05;;;;;;;;;;;8.60;99.90;;;;;;4938016;29;20301;-83
2022/12/24 06:30:33;;;;;;;;;;;8.60;99.90;;;;;;4932007;29;19934;-82
2022/12/24 06:33:00;;;;;;;;;;;8.60;99.90;;;;;;4936894;29;20352;-82
2022/12/24 06:35:29;;;;;;;;;;;8.60;99.90;;;;;;4936815;29;19986;-83
2022/12/24 06:37:56;;;;;;;;;;;8.60;99.90;;;;;;4936780;29;20309;-83
2022/12/24 06:40:27;;;;;;;;;;;8.60;99.90;;;;;;4924791;29;19937;-83
2022/12/24 06:42:54;;;;;;;;;;;8.60;99.90;;;;;;4942057;28;20022;-83
2022/12/24 06:45:22;;;;;;;;;;;8.60;99.90;;;;;;4938861;29;19927;-82
2022/12/24 06:47:49;;;;;;;;;;;8.60;99.90;;;;;;4944462;29;19946;-83
2022/12/24 06:50:16;;;;;;;;;;;8.60;99.90;;;;;;4933466;29;19933;-83
2022/12/24 06:52:43;;;;;;;;;;;8.60;99.90;;;;;;4938905;29;19953;-83
2022/12/24 06:55:10;;;;;;;;;;;8.50;99.90;;;;;;4942526;29;20014;-83
2022/12/24 06:57:38;;;;;;;;;;;8.50;99.90;;;;;;4922595;29;19926;-83
2022/12/24 07:00:08;;;;;;;;;;;8.50;99.90;;;;;;4934616;29;19966;-83
2022/12/24 07:02:35;;;;;;;;;;;8.50;99.90;;;;;;4941866;29;20005;-82
2022/12/24 07:05:03;;;;;;;;;;;8.50;99.90;;;;;;4935300;29;20024;-83
2022/12/24 07:07:30;;;;;;;;;;;8.50;99.90;;;;;;4937770;28;20001;-83
2022/12/24 07:09:57;;;;;;;;;;;8.50;99.90;;;;;;4941249;29;19998;-82
2022/12/24 07:12:23;;;;;;;;;;;8.50;99.90;;;;;;4940745;29;19934;-82
2022/12/24 07:14:52;;;;;;;;;;;8.50;99.90;;;;;;4921105;29;21035;-83
2022/12/24 07:17:19;;;;;;;;;;;8.50;99.90;;;;;;4934571;29;19934;-82
2022/12/24 07:19:45;;;;;;;;;;;8.50;99.90;;;;;;4933050;29;19931;-83
2022/12/24 07:22:12;;;;;;;;;;;8.50;99.90;;;;;;4939021;29;19937;-82
2022/12/24 07:24:42;;;;;;;;;;;8.50;99.90;;;;;;4939554;29;19958;-82
2022/12/24 07:27:10;;;;;;;;;;;8.50;99.90;;;;;;4937319;29;20396;-82
2022/12/24 07:29:40;;;;;;;;;;;8.50;99.90;;;;;;4936738;29;19926;-82
2022/12/24 07:32:10;;;;;;;;;;;8.50;99.90;;;;;;4938553;29;19927;-83
2022/12/24 07:34:40;;;;;;;;;;;8.50;99.90;;;;;;4943582;29;20014;-83
2022/12/24 07:37:07;;;;;;;;;;;8.50;99.90;;;;;;4942259;29;19927;-82
2022/12/24 07:39:34;;;;;;;;;;;8.40;99.90;;;;;;4938432;29;19951;-81
2022/12/24 07:42:01;;;;;;;;;;;8.40;99.90;;;;;;4941953;29;19927;-82
2022/12/24 07:44:29;;;;;;;;;;;8.50;99.90;;;;;;4930549;29;19970;-83
2022/12/24 07:46:56;;;;;;;;;;;8.40;99.90;;;;;;4940172;29;19959;-83
2022/12/24 07:49:24;;;;;;;;;;;8.40;99.90;;;;;;4933402;29;20017;-81
2022/12/24 07:51:51;;;;;;;;;;;8.40;99.90;;;;;;4927349;29;19935;-81
2022/12/24 07:54:20;;;;;;;;;;;8.40;99.90;;;;;;4942858;28;19927;-82
2022/12/24 07:56:47;;;;;;;;;;;8.40;99.90;;;;;;4935253;29;19931;-82
2022/12/24 07:59:14;;;;;;;;;;;8.40;99.90;;;;;;4934326;29;19927;-81
2022/12/24 08:01:41;;;;;;;;;;;8.40;99.90;;;;;;4914660;29;20021;-82
2022/12/24 08:04:08;;;;;;;;;;;8.40;99.90;;;;;;4933540;29;19955;-81
2022/12/24 08:06:36;;;;;;;;;;;8.40;99.90;;;;;;4940054;29;20338;-83
2022/12/24 08:09:03;;;;;;;;;;;8.40;99.90;;;;;;4929295;29;19942;-77
2022/12/24 08:11:30;;;;;;;;;;;8.40;99.90;;;;;;4929802;29;19931;-83
2022/12/24 08:13:58;;;;;;;;;;;8.40;99.90;;;;;;4916436;29;20314;-79
2022/12/24 08:16:25;;;;;;;;;;;8.40;99.90;;;;;;4932719;29;20421;-78
2022/12/24 08:18:52;;;;;;;;;;;8.40;99.90;;;;;;4926344;29;19962;-77
2022/12/24 08:21:19;;;;;;;;;;;8.40;99.90;;;;;;4928173;29;19932;-77
2022/12/24 08:23:47;;;;;;;;;;;8.30;99.90;;;;;;4939223;29;19923;-86
2022/12/24 08:26:14;;;;;;;;;;;8.40;99.90;;;;;;4935707;29;19976;-78
2022/12/24 08:28:41;;;;;;;;;;;8.40;99.90;;;;;;4929096;29;19937;-79
2022/12/24 08:31:08;;;;;;;;;;;8.30;99.90;;;;;;4928120;29;19931;-78
2022/12/24 08:33:36;;;;;;;;;;;8.30;99.90;;;;;;4938572;29;19937;-80
2022/12/24 08:36:04;;;;;;;;;;;8.30;99.90;;;;;;4927420;29;20442;-76
2022/12/24 08:38:31;;;;;;;;;;;8.30;99.90;;;;;;4929694;29;19965;-77
2022/12/24 08:41:00;;;;;;;;;;;8.30;99.90;;;;;;4930778;29;19927;-76
2022/12/24 08:43:28;;;;;;;;;;;8.30;99.90;;;;;;4911355;29;19926;-83
2022/12/24 08:45:54;;;;;;;;;;;8.30;99.90;;;;;;4925173;29;20662;-77
2022/12/24 08:48:22;;;;;;;;;;;8.30;99.90;;;;;;4927603;29;19934;-76
2022/12/24 08:50:51;;;;;;;;;;;8.30;99.90;;;;;;4923908;29;19935;-75
2022/12/24 08:53:18;;;;;;;;;;;8.30;99.90;;;;;;4926828;29;19927;-77
2022/12/24 08:55:45;;;;;;;;;;;8.30;99.90;;;;;;4922987;29;20042;-77
2022/12/24 08:58:17;;;;;;;;;;;8.30;99.90;;;;;;4924794;29;20934;-77
2022/12/24 09:00:44;;;;;;;;;;;8.30;99.90;;;;;;4931111;29;19959;-78
2022/12/24 09:03:14;;;;;;;;;;;8.30;99.90;;;;;;4927809;29;20022;-77
2022/12/24 09:05:41;;;;;;;;;;;8.30;99.90;;;;;;4911960;29;19971;-77
2022/12/24 09:08:09;;;;;;;;;;;8.30;99.90;;;;;;4932923;29;20006;-78
2022/12/24 09:10:36;;;;;;;;;;;8.30;99.90;;;;;;4923489;29;19976;-76
2022/12/24 09:13:03;;;;;;;;;;;8.30;99.90;;;;;;4923254;29;19934;-75
2022/12/24 09:15:31;;;;;;;;;;;8.30;99.90;;;;;;4922976;29;20389;-77
2022/12/24 09:17:58;;;;;;;;;;;8.30;99.90;;;;;;4926845;29;19935;-76
2022/12/24 09:20:26;;;;;;;;;;;8.30;99.90;;;;;;4925781;29;19927;-76
2022/12/24 09:22:56;;;;;;;;;;;8.30;99.90;;;;;;4920448;29;19926;-77
2022/12/24 09:25:23;;;;;;;;;;;8.30;99.90;;;;;;4933712;29;19930;-76
2022/12/24 09:27:50;;;;;;;;;;;8.30;99.90;;;;;;4929787;29;19930;-76
2022/12/24 09:30:17;;;;;;;;;;;8.30;99.90;;;;;;4914468;29;19938;-75
2022/12/24 09:32:45;;;;;;;;;;;8.30;99.90;;;;;;4913125;29;20409;-79
2022/12/24 09:35:12;;;;;;;;;;;8.30;99.90;;;;;;4927208;29;19931;-79
2022/12/24 09:37:39;;;;;;;;;;;8.30;99.90;;;;;;4931449;29;19934;-76
2022/12/24 09:40:14;;;;;;;;;;;8.30;99.90;;;;;;4924236;29;19934;-79
2022/12/24 09:42:48;;;;;;;;;;;8.40;99.90;;;;;;4934905;29;20419;-79
2022/12/24 09:45:18;;;;;;;;;;;8.40;99.90;;;;;;4938673;29;19937;-79
2022/12/24 09:47:48;;;;;;;;;;;8.40;99.90;;;;;;4935718;29;19927;-77
2022/12/24 09:50:23;;;;;;;;;;;8.40;99.90;;;;;;4925006;29;19962;-79
2022/12/24 09:52:50;;;;;;;;;;;8.40;99.90;;;;;;4929380;29;19935;-79
2022/12/24 09:55:21;;;;;;;;;;;8.40;99.90;;;;;;4922513;29;20103;-79
2022/12/24 09:57:53;;;;;;;;;;;8.40;99.90;;;;;;4906503;29;19935;-78
2022/12/24 10:00:21;;;;;;;;;;;8.40;99.90;;;;;;4929723;29;19946;-77
2022/12/24 10:02:52;;;;;;;;;;;8.40;99.90;;;;;;4929369;29;19969;-79
2022/12/24 10:05:23;;;;;;;;;;;8.50;99.90;;;;;;4921101;29;19927;-76
2022/12/24 10:07:56;;;;;;;;;;;8.40;99.90;;;;;;4922851;29;19931;-78
2022/12/24 10:10:28;;;;;;;;;;;8.50;99.90;;;;;;4922762;29;19931;-77
2022/12/24 10:12:58;;;;;;;;;;;8.50;99.90;;;;;;4916580;29;19935;-77
2022/12/24 10:15:28;;;;;;;;;;;8.50;99.90;;;;;;4925202;29;20021;-77
2022/12/24 10:18:08;;;;;;;;;;;8.50;99.90;;;;;;4931863;29;19931;-77
2022/12/24 10:20:39;;;;;;;;;;;8.50;99.90;;;;;;4923485;29;20406;-77
2022/12/24 10:23:11;;;;;;;;;;;8.50;99.90;;;;;;4922679;29;19946;-78
2022/12/24 10:25:44;;;;;;;;;;;8.50;99.90;;;;;;4940820;29;19934;-79
2022/12/24 10:28:14;;;;;;;;;;;8.50;99.90;;;;;;4910738;29;19959;-76
2022/12/24 10:30:43;;;;;;;;;;;8.50;99.90;;;;;;4921131;29;20313;-79
2022/12/24 10:33:16;;;;;;;;;;;8.50;99.90;;;;;;4939834;29;20022;-78
2022/12/24 10:35:47;;;;;;;;;;;8.50;99.90;;;;;;4921200;29;19982;-77
2022/12/24 10:38:14;;;;;;;;;;;8.60;99.90;;;;;;4933050;29;19950;-79
2022/12/24 10:40:43;;;;;;;;;;;8.60;99.90;;;;;;4930807;29;19934;-77
2022/12/24 10:43:14;;;;;;;;;;;8.60;99.90;;;;;;4946544;29;19926;-82
2022/12/24 10:45:42;;;;;;;;;;;8.60;99.90;;;;;;4939316;29;20225;-77
2022/12/24 10:48:14;;;;;;;;;;;8.60;99.90;;;;;;4937494;29;19934;-78
2022/12/24 10:50:49;;;;;;;;;;;8.60;99.90;;;;;;4938725;29;19926;-79
2022/12/24 10:53:18;;;;;;;;;;;8.60;99.90;;;;;;4936267;29;20546;-78
2022/12/24 10:55:47;;;;;;;;;;;8.60;99.90;;;;;;4947145;29;19915;-82
2022/12/24 10:58:16;;;;;;;;;;;8.60;99.90;;;;;;4941391;29;20353;-77
2022/12/24 11:00:49;;;;;;;;;;;8.60;99.90;;;;;;4935772;29;19926;-79
2022/12/24 11:03:23;;;;;;;;;;;8.60;99.90;;;;;;4933860;29;19937;-81
2022/12/24 11:06:01;;;;;;;;;;;8.60;99.90;;;;;;4921777;29;20064;-80
2022/12/24 11:08:28;;;;;;;;;;;8.60;99.90;;;;;;4941202;29;19935;-83
2022/12/24 11:10:56;;;;;;;;;;;8.60;99.90;;;;;;4939362;29;19970;-80
2022/12/24 11:13:25;;;;;;;;;;;8.60;99.90;;;;;;4940974;29;19982;-79
2022/12/24 11:16:01;;;;;;;;;;;8.60;99.90;;;;;;4935099;29;19930;-77
2022/12/24 11:18:28;;;;;;;;;;;8.60;99.90;;;;;;4936592;29;19935;-79
2022/12/24 11:20:58;;;;;;;;;;;8.60;99.90;;;;;;4925914;29;19978;-79
2022/12/24 11:23:26;;;;;;;;;;;8.60;99.90;;;;;;4939346;29;19927;-81
2022/12/24 11:25:55;;;;;;;;;;;8.60;99.90;;;;;;4934528;29;20022;-84
2022/12/24 11:28:23;;;;;;;;;;;8.60;99.90;;;;;;4942514;29;19927;-81
2022/12/24 11:31:05;;;;;;;;;;;8.70;99.90;;;;;;4935312;29;19930;-77
2022/12/24 11:33:36;;;;;;;;;;;8.70;99.90;;;;;;4942006;29;19946;-79
2022/12/24 11:36:04;;;;;;;;;;;8.70;99.90;;;;;;4929084;29;19935;-78
2022/12/24 11:38:34;;;;;;;;;;;8.70;99.90;;;;;;4928114;29;19982;-78
2022/12/24 11:41:09;;;;;;;;;;;8.70;99.90;;;;;;4922426;29;19927;-78
2022/12/24 11:43:46;;;;;;;;;;;8.70;99.90;;;;;;4924159;29;20989;-79
2022/12/24 11:46:37;;;;;;;;;;;8.70;99.90;;;;;;4928216;29;20018;-79
2022/12/24 11:49:16;;;;;;;;;;;8.70;99.90;;;;;;4926290;29;20369;-79
2022/12/24 11:51:58;;;;;;;;;;;8.70;99.90;;;;;;4923449;29;19967;-80
2022/12/24 11:54:29;;;;;;;;;;;8.70;99.90;;;;;;4931653;29;19934;-80
2022/12/24 11:56:58;;;;;;;;;;;8.70;99.90;;;;;;4929464;29;19935;-85
2022/12/24 11:59:28;;;;;;;;;;;8.70;99.90;;;;;;4932014;29;20392;-85
2022/12/24 12:01:57;;;;;;;;;;;8.90;99.90;;;;;;4929220;29;19930;-80
2022/12/24 12:04:25;;;;;;;;;;;8.90;99.90;;;;;;4923835;29;20018;-79
2022/12/24 12:06:54;;;;;;;;;;;8.90;99.90;;;;;;4929928;29;19930;-85
2022/12/24 12:09:22;;;;;;;;;;;8.80;99.90;;;;;;4933335;29;19938;-77
2022/12/24 12:11:52;;;;;;;;;;;8.80;99.90;;;;;;4928610;29;19955;-77
2022/12/24 12:14:21;;;;;;;;;;;8.80;99.90;;;;;;4927045;29;19934;-77
2022/12/24 12:17:04;;;;;;;;;;;8.80;99.90;;;;;;4924243;29;19943;-78
2022/12/24 12:19:33;;;;;;;;;;;8.80;99.90;;;;;;4922551;29;21052;-78
2022/12/24 12:22:03;;;;;;;;;;;8.80;99.90;;;;;;4910596;29;19982;-77
2022/12/24 12:24:34;;;;;;;;;;;8.80;99.90;;;;;;4923325;29;19931;-79
2022/12/24 12:27:07;;;;;;;;;;;8.90;99.90;;;;;;4921343;29;19934;-86
2022/12/24 12:29:36;;;;;;;;;;;8.90;99.90;;;;;;4932328;29;19930;-80
2022/12/24 12:32:06;;;;;;;;;;;8.80;99.90;;;;;;4930249;29;20415;-78
2022/12/24 12:34:35;;;;;;;;;;;8.80;99.90;;;;;;4927404;29;19927;-80
2022/12/24 12:37:06;;;;;;;;;;;8.80;99.90;;;;;;4926039;28;20085;-78
2022/12/24 12:39:34;;;;;;;;;;;8.80;99.90;;;;;;4925638;29;19930;-79
2022/12/24 12:42:07;;;;;;;;;;;8.90;99.90;;;;;;4929922;29;19931;-79
2022/12/24 12:44:45;;;;;;;;;;;8.80;99.90;;;;;;4920200;29;19931;-80
2022/12/24 12:47:22;;;;;;;;;;;8.90;99.90;;;;;;4929130;29;20016;-78
2022/12/24 12:49:56;;;;;;;;;;;8.80;99.90;;;;;;4933910;29;19977;-87
2022/12/24 12:52:33;;;;;;;;;;;8.80;99.90;;;;;;4933703;29;20408;-78
2022/12/24 12:55:15;;;;;;;;;;;8.90;99.90;;;;;;4924226;29;19927;-79
2022/12/24 12:57:45;;;;;;;;;;;8.90;99.90;;;;;;4932569;29;19942;-79
2022/12/24 13:00:18;;;;;;;;;;;8.90;99.90;;;;;;4927672;29;19930;-78
2022/12/24 13:02:56;;;;;;;;;;;8.90;99.90;;;;;;4924774;29;19935;-81
2022/12/24 13:05:43;;;;;;;;;;;8.90;99.90;;;;;;4932223;29;20412;-78
2022/12/24 13:08:20;;;;;;;;;;;8.90;99.90;;;;;;4929340;29;20514;-80
2022/12/24 13:10:53;;;;;;;;;;;8.90;99.90;;;;;;4927596;29;20355;-78
2022/12/24 13:13:36;;;;;;;;;;;8.90;99.90;;;;;;4918543;29;21814;-79
2022/12/24 13:16:13;;;;;;;;;;;8.90;99.90;;;;;;4922775;29;19934;-80
2022/12/24 13:18:45;;;;;;;;;;;8.90;99.90;;;;;;4924377;29;19934;-81
2022/12/24 13:21:15;;;;;;;;;;;8.90;99.90;;;;;;4924041;29;20592;-80
2022/12/24 13:23:42;;;;;;;;;;;8.90;99.90;;;;;;4919759;29;19934;-79
2022/12/24 13:26:10;;;;;;;;;;;8.90;99.90;;;;;;4917273;29;20009;-78
2022/12/24 13:28:37;;;;;;;;;;;8.90;99.90;;;;;;4923841;29;19966;-78
2022/12/24 13:31:26;;;;;;;;;;;8.90;99.90;;;;;;4923001;29;20353;-81
2022/12/24 13:33:55;;;;;;;;;;;8.90;99.90;;;;;;4928987;29;20333;-79
2022/12/24 13:36:23;;;;;;;;;;;8.90;99.90;;;;;;4929610;29;20453;-80
2022/12/24 13:38:59;;;;;;;;;;;8.90;99.90;;;;;;4929577;29;19927;-80
2022/12/24 13:41:53;;;;;;;;;;;8.90;99.90;;;;;;4923167;29;19935;-80
2022/12/24 13:44:22;;;;;;;;;;;8.90;99.90;;;;;;4927334;29;19958;-80
2022/12/24 13:46:55;;;;;;;;;;;8.90;99.90;;;;;;4925302;29;19958;-80
2022/12/24 13:49:27;;;;;;;;;;;8.90;99.90;;;;;;4925040;29;19927;-79
2022/12/24 13:52:09;;;;;;;;;;;8.90;99.90;;;;;;4945363;29;19974;-79
2022/12/24 13:54:39;;;;;;;;;;;8.90;99.90;;;;;;4939505;29;19958;-80
2022/12/24 13:57:23;;;;;;;;;;;8.90;99.90;;;;;;4923032;29;19927;-78
2022/12/24 13:59:56;;;;;;;;;;;8.90;99.90;;;;;;4921616;29;19926;-77
2022/12/24 14:02:25;;;;;;;;;;;8.90;99.90;;;;;;4928117;29;19927;-78
2022/12/24 14:05:01;;;;;;;;;;;8.90;99.90;;;;;;4913755;29;19927;-77
2022/12/24 14:07:28;;;;;;;;;;;8.90;99.90;;;;;;4899096;29;19931;-80
2022/12/24 14:09:55;;;;;;;;;;;8.90;99.90;;;;;;4920061;29;19931;-79
2022/12/24 14:12:41;;;;;;;;;;;8.90;99.90;;;;;;4917448;29;19964;-77
2022/12/24 14:15:26;;;;;;;;;;;8.90;99.90;;;;;;4916420;28;19941;-76
2022/12/24 14:17:59;;;;;;;;;;;8.90;99.90;;;;;;4911743;29;19927;-82
2022/12/24 14:20:26;;;;;;;;;;;8.90;99.90;;;;;;4909087;29;19934;-77
2022/12/24 14:22:53;;;;;;;;;;;8.90;99.90;;;;;;4904397;29;20326;-81
2022/12/24 14:25:22;;;;;;;;;;;8.90;99.90;;;;;;4927229;29;19970;-77
2022/12/24 14:27:51;;;;;;;;;;;8.90;99.90;;;;;;4911319;29;19931;-78
2022/12/24 14:30:20;;;;;;;;;;;8.90;99.90;;;;;;4921952;29;19993;-77
2022/12/24 14:32:49;;;;;;;;;;;8.90;99.90;;;;;;4913154;29;19927;-77
2022/12/24 14:35:18;;;;;;;;;;;8.90;99.90;;;;;;4919863;29;19990;-77
2022/12/24 14:37:46;;;;;;;;;;;8.90;99.90;;;;;;4920699;29;19933;-77
2022/12/24 14:40:16;;;;;;;;;;;8.90;99.90;;;;;;4919049;29;20294;-81
2022/12/24 14:42:48;;;;;;;;;;;8.90;99.90;;;;;;4924370;29;19933;-75
2022/12/24 14:45:18;;;;;;;;;;;8.90;99.90;;;;;;4918617;29;19927;-78
2022/12/24 14:47:49;;;;;;;;;;;8.90;99.90;;;;;;4918546;29;19946;-77
2022/12/24 14:50:25;;;;;;;;;;;8.90;99.90;;;;;;4910689;29;20432;-79
2022/12/24 14:52:56;;;;;;;;;;;8.80;99.90;;;;;;4912709;29;20809;-78
2022/12/24 14:55:33;;;;;;;;;;;8.80;99.90;;;;;;4916990;29;19962;-77